Dutch
Home     News     Corporate     Events & Tours     Flight ops     Crew centre      
My transavia virtual    Join us    Last logs    Who is flying    Software    Training    VRTS     
 

view flightdata
view flightplan
view OFP
view flightlog



flightdata:
pilot: David Kloss
flight: TRA392
from: EHAM (Amsterdam Schiphol)
to: LEIB (Ibiza)
date: 28-08-2012
departure: 15:29z
arrival: 17:59z
duration: 2:30
aircraft: B738 (PHHSA)
distance: 898 NM
touchdown: -88 ft/m @ 145 KIAS



flightplan:
-(FPL-TRA392-IS
-B738/M-SDEHPRWXY/S
-EHAM1530
-N0449F390 LEKKO UN872 MEDIL UN872 KOVIN UY317 RESMI UN857 DIRMO UN855 POS
-LEIB0216 LEPA
-EET/EBUR0012 LFFF0021 LECB0128 REG/PHHSA SEL/JQDH OPR/TRA RMK/TCAS DOF/120828 RVR/200 ORGN/EHAMTRAK)



operational flightplan (OFP):
L O A D S H E E T               CHECKED      APPROVED       DATE      TIME
ALL WEIGHTS IN KILOGRAMS        P. JANSEN    DAVID KLOSS    28AUG12   1451

FROM/TO    FLIGHT    A/C REG      A/C TYPE                  CONFIG
EHAM/LEIB  TRA392    PH-HSA       B737-800/CFM56-7B26       Y186

                         WEIGHT   DISTRIBUTION
LOAD IN COMPARTMENTS       3534   1/1998 2/1536

PASSENGER/CABIN BAG       13521   AD/171 C/15 I/6    TTL 186+6

TOTAL PAYLOAD             17055                           LAST MINUTE CHANGES
DRY OPERATING WEIGHT      41950                     DEST  SPEC  CL/CPT  +/-  WEIGHT
ZERO FUEL WEIGHT ACTUAL   59005   MAX    62596 L
TAKE OFF FUEL              8700
TAKE OFF WEIGHT  ACTUAL   67705   MAX    78999
TRIP FUEL                  6660
LANDING WEIGHT   ACTUAL   61045   MAX    65317
TAXI OUT FUEL               230

UNDERLOAD BEFORE L.M.C.    3591   LIMITED BY ZFW            LMC TOTAL  + / -

BALANCING/TRIM CONDITIONS
MACZFW  24.22%
MACTOW  23.45%   STAB TRIM: +6.5
MACLDW  24.03%

MAC LIMITS
ZFW   FWD  8.16%   AFT 30.24%
TOW   FWD 10.53%   AFT 31.44%
LDW   FWD  8.03%   AFT 30.51%

TRIM BY CABIN AREA
A18.B75.C93


CAPTAINS INFORMATION/NOTES
STD WEIGHTS USED  ADULT/76 CHILD/35 INFANT/0 BAGGAGE/19
BLOCK FUEL/   8930 ( 11059 LITER)
LANDG FUEL/   2040 (  2526 LITER)
TAXI TIME 20 MIN

CREATED WITH TOPCAT   2.70 (21JAN11)
AIRCRAFT FILE VERSION 1.13 (07JAN11)

END LOADSHEET TRA1261 EHAM-LEIB

EATHER BRIEFING - TRA1261 EHAM-LEIB 10JUN11 1726UTC

WEATHER DATA PROVIDED BY NOAA
** NOT FOR OPERATIONAL USE **


SCHIPHOL [04, 06, 09, 18C, 18L, 18R, 22, 24, 27, 36C, 36L, 36R]
EHAM 262025Z 16009KT 130V190 9999 FEW037 BKN043 10/07 Q1004
TEMPO 27012G22KT 7000 -SHRA SCT025CB=
EHAM 261706Z 2618/2724 14005KT 9999 SCT025 PROB30
      TEMPO 2618/2624 6000 -SHRA SCT020CB BKN030
      BECMG 2623/2702 20009KT 7000 NSC PROB40
      TEMPO 2704/2711 4000 BR -RA SCT008 BKN012
      BECMG 2708/2711 24014KT 9999 SCT012 BKN016 PROB30
      TEMPO 2711/2718 7000 -SHRA SCT020CB
      BECMG 2715/2718 27009KT SCT030
      BECMG 2720/2723 20005KT

IBIZA [06, 24]
LEIB 101700Z 22005KT 180V270 9999 FEW015 23/18 Q1015 NOSIG
LEIB 101100Z 1012/1112 22007KT 9999 FEW015 TX24/1013Z TN18/1103Z PROB40
      TEMPO 1100/1106 RA BKN012

PALMA DE MALLORCA [06L, 06R, 24L, 24R]
LEPA 101700Z 20009KT 170V240 9999 FEW020 23/18 Q1016 NOSIG
LEPA 101100Z 1012/1112 22009KT 9999 FEW018 SCT030 TX23/1013Z TN17/1106Z PROB40
      TEMPO 1012/1015 4500 SHRA SCT025TCU PROB30 1012/1015 3000 TSRA FEW020CB

END WX BRIEF - CREATED WITH TOPCAT 2.70




WEATHER BRIEFING  -  TRA392  EHAM-LEIB  28AUG12  14:51Z

WEATHER DATA PROVIDED BY IVAO
** NOT FOR OPERATIONAL USE **

SCHIPHOL

EHAM 280438Z 2806/2912 14008KT CAVOK
      BECMG 2806/2808 21010KT SCT020 PROB30 2810/2813 -RA BKN012
      BECMG 2809/2812 26011KT
      BECMG 2818/2821 18005KT CAVOK PROB30
      TEMPO 2903/2908 4000 MIFG BR
      BECMG 2909/2912 21012KT SCT020

IBIZA

LEIB 281344Z 2812/2912 12008KT 9999 SCT018 TX31/2912Z TN24/2904Z

PALMA DE MALLORCA

LEPA 281100Z 2812/2912 22010KT 9999 FEW018 TX33/2912Z TN21/2904Z
      BECMG 2818/2820 VRB03KT
      BECMG 2908/2912 22010KT

END WX BRIEF




flightlog:
Pilot : David Kloss
Flight: TRA392
From  : EHAM Schiphol
To    : LEIB Ibiza

[FLIGHTLOG] 1.3.5
28-08-2012 15:27:36z, logging started
28-08-2012 15:27:36z, pos report: 003 KIAS, -00 004 ft, heading 183, winds 260 @ 12 kts
28-08-2012 15:29:09z, parking brake released
28-08-2012 15:31:43z, flaps set to 13%
28-08-2012 15:31:51z, flaps set to 25%
28-08-2012 15:31:55z, flaps set to 38%
28-08-2012 15:37:04z, take-off at 151 KIAS
28-08-2012 15:37:04z, pos report: 151 KIAS, 00 003 ft, heading 238, winds 260 @ 12 kts
28-08-2012 15:37:06z, flying online @ VATSIM (TRA392)
28-08-2012 15:37:06z, position: EHAM - Schiphol
28-08-2012 15:37:10z, retracted gear at 153 KIAS and 181 ft AGL
28-08-2012 15:38:33z, flaps set to 25%
28-08-2012 15:38:38z, flaps set to 13%
28-08-2012 15:38:55z, flaps set to 0%
28-08-2012 15:42:37z, pos report: 287 KIAS, 11 663 ft, heading 183, winds 237 @ 33 kts
28-08-2012 15:57:38z, pos report: 254 KIAS, 37 737 ft, heading 205, winds 220 @ 82 kts
28-08-2012 16:12:39z, pos report: 244 KIAS, 39 082 ft, heading 214, winds 222 @ 75 kts
28-08-2012 16:27:40z, pos report: 248 KIAS, 39 141 ft, heading 183, winds 231 @ 67 kts
28-08-2012 16:42:41z, pos report: 248 KIAS, 39 167 ft, heading 186, winds 233 @ 67 kts
28-08-2012 16:57:42z, pos report: 248 KIAS, 39 141 ft, heading 186, winds 231 @ 75 kts
28-08-2012 17:12:43z, pos report: 248 KIAS, 39 141 ft, heading 169, winds 240 @ 57 kts
28-08-2012 17:27:44z, pos report: 249 KIAS, 39 141 ft, heading 187, winds 241 @ 52 kts
28-08-2012 17:42:46z, pos report: 300 KIAS, 18 886 ft, heading 234, winds 243 @ 29 kts
28-08-2012 17:46:09z, deployed spoilers
28-08-2012 17:46:43z, retracted spoilers
28-08-2012 17:51:27z, deployed spoilers
28-08-2012 17:53:23z, retracted spoilers
28-08-2012 17:53:57z, below glideslope
28-08-2012 17:54:14z, flaps set to 13%
28-08-2012 17:54:15z, on glideslope
28-08-2012 17:54:28z, flaps set to 38%
28-08-2012 17:54:42z, flaps set to 50%
28-08-2012 17:54:51z, lowered gear at 197 KIAS and 2097 ft AGL
28-08-2012 17:55:03z, flaps set to 62%
28-08-2012 17:55:09z, intercepted localizer
28-08-2012 17:55:36z, flaps set to 75%
28-08-2012 17:55:39z, flaps set to 87%
28-08-2012 17:57:16z, below glideslope
28-08-2012 17:57:32z, touchdown: -88ft/m at 145 KIAS
28-08-2012 17:57:32z, pos report: 145 KIAS, 00 029 ft, heading 062, winds 077 @ 06 kts
28-08-2012 17:57:34z, flying online @ VATSIM (TRA392)
28-08-2012 17:57:34z, position: LEIB - Ibiza
28-08-2012 17:57:39z, deployed spoilers
28-08-2012 17:57:47z, pos report: 075 KIAS, 00 028 ft, heading 051, winds 077 @ 06 kts
28-08-2012 17:58:08z, retracted spoilers
28-08-2012 17:58:22z, flaps set to 75%
28-08-2012 17:58:26z, flaps set to 62%
28-08-2012 17:58:28z, flaps set to 50%
28-08-2012 17:58:32z, flaps set to 38%
28-08-2012 17:58:36z, flaps set to 25%
28-08-2012 17:58:44z, flaps set to 13%
28-08-2012 17:58:47z, flaps set to 0%
28-08-2012 17:59:49z, parking brake set
28-08-2012 18:00:13z, logging ended

©2009-2020, transavia virtual. All rights reserved. This website is only meant for simulation purposes.
This website is not owned by transavia, nor is transavia responsible for the content of this website.